sensor_id;sensor_type;location;lat;lon;timestamp;temperature;humidity
702;DHT22;334;48.808;9.222;2023-02-04T00:00:50;10.50;8.40
702;DHT22;334;48.808;9.222;2023-02-04T00:01:53;10.40;8.60
702;DHT22;334;48.808;9.222;2023-02-04T00:02:55;10.40;8.30
702;DHT22;334;48.808;9.222;2023-02-04T00:03:58;10.40;8.30
702;DHT22;334;48.808;9.222;2023-02-04T00:05:00;10.40;9.10
702;DHT22;334;48.808;9.222;2023-02-04T00:06:02;10.40;9.20
702;DHT22;334;48.808;9.222;2023-02-04T00:07:05;10.40;9.20
702;DHT22;334;48.808;9.222;2023-02-04T00:08:06;10.30;9.10
702;DHT22;334;48.808;9.222;2023-02-04T00:09:08;10.30;9.90
702;DHT22;334;48.808;9.222;2023-02-04T00:10:10;10.30;9.80
702;DHT22;334;48.808;9.222;2023-02-04T00:11:12;10.30;10.00
702;DHT22;334;48.808;9.222;2023-02-04T00:12:14;10.30;10.30
702;DHT22;334;48.808;9.222;2023-02-04T00:13:17;10.30;10.60
702;DHT22;334;48.808;9.222;2023-02-04T00:14:19;10.30;10.70
702;DHT22;334;48.808;9.222;2023-02-04T00:15:21;10.30;10.40
702;DHT22;334;48.808;9.222;2023-02-04T00:16:24;10.30;10.40
702;DHT22;334;48.808;9.222;2023-02-04T00:17:25;10.30;10.60
702;DHT22;334;48.808;9.222;2023-02-04T00:18:28;10.30;10.70
702;DHT22;334;48.808;9.222;2023-02-04T00:19:29;10.30;10.70
702;DHT22;334;48.808;9.222;2023-02-04T00:20:32;10.20;10.80
702;DHT22;334;48.808;9.222;2023-02-04T00:21:34;10.20;10.40
702;DHT22;334;48.808;9.222;2023-02-04T00:22:36;10.20;10.80
702;DHT22;334;48.808;9.222;2023-02-04T00:23:38;10.20;11.00
702;DHT22;334;48.808;9.222;2023-02-04T00:24:40;10.20;10.80
702;DHT22;334;48.808;9.222;2023-02-04T00:25:43;10.20;10.80
702;DHT22;334;48.808;9.222;2023-02-04T00:26:46;10.20;10.90
702;DHT22;334;48.808;9.222;2023-02-04T00:27:48;10.30;10.70
702;DHT22;334;48.808;9.222;2023-02-04T00:28:50;10.30;10.60
702;DHT22;334;48.808;9.222;2023-02-04T00:29:52;10.30;10.50
702;DHT22;334;48.808;9.222;2023-02-04T00:30:54;10.30;10.30
702;DHT22;334;48.808;9.222;2023-02-04T00:31:56;10.30;10.40
702;DHT22;334;48.808;9.222;2023-02-04T00:32:58;10.30;10.00
702;DHT22;334;48.808;9.222;2023-02-04T00:34:00;10.40;10.50
702;DHT22;334;48.808;9.222;2023-02-04T00:35:02;10.40;10.50
702;DHT22;334;48.808;9.222;2023-02-04T00:36:05;10.40;10.00
702;DHT22;334;48.808;9.222;2023-02-04T00:37:07;10.50;10.00
702;DHT22;334;48.808;9.222;2023-02-04T00:38:09;10.50;9.80
702;DHT22;334;48.808;9.222;2023-02-04T00:39:11;10.50;9.20
702;DHT22;334;48.808;9.222;2023-02-04T00:40:13;10.50;9.20
702;DHT22;334;48.808;9.222;2023-02-04T00:41:15;10.50;8.90
702;DHT22;334;48.808;9.222;2023-02-04T00:42:17;10.50;8.60
702;DHT22;334;48.808;9.222;2023-02-04T00:43:21;10.50;8.50
702;DHT22;334;48.808;9.222;2023-02-04T00:44:24;10.50;8.30
702;DHT22;334;48.808;9.222;2023-02-04T00:45:27;10.50;7.80
702;DHT22;334;48.808;9.222;2023-02-04T00:46:29;10.40;7.50
702;DHT22;334;48.808;9.222;2023-02-04T00:47:31;10.40;7.50
702;DHT22;334;48.808;9.222;2023-02-04T00:48:33;10.40;7.80
702;DHT22;334;48.808;9.222;2023-02-04T00:49:36;10.40;7.80
702;DHT22;334;48.808;9.222;2023-02-04T00:50:37;10.40;7.40
702;DHT22;334;48.808;9.222;2023-02-04T00:51:41;10.40;7.60
702;DHT22;334;48.808;9.222;2023-02-04T00:52:47;10.40;7.60
702;DHT22;334;48.808;9.222;2023-02-04T00:53:49;10.30;7.20
702;DHT22;334;48.808;9.222;2023-02-04T00:54:51;10.30;7.00
702;DHT22;334;48.808;9.222;2023-02-04T00:55:53;10.40;7.30
702;DHT22;334;48.808;9.222;2023-02-04T00:56:55;10.40;7.20
702;DHT22;334;48.808;9.222;2023-02-04T00:57:57;10.40;7.30
702;DHT22;334;48.808;9.222;2023-02-04T00:59:00;10.40;7.40
702;DHT22;334;48.808;9.222;2023-02-04T01:00:03;10.30;7.50
702;DHT22;334;48.808;9.222;2023-02-04T01:01:05;10.40;8.00
702;DHT22;334;48.808;9.222;2023-02-04T01:02:07;10.40;8.10
702;DHT22;334;48.808;9.222;2023-02-04T01:03:09;10.30;8.40
702;DHT22;334;48.808;9.222;2023-02-04T01:04:11;10.30;9.10
702;DHT22;334;48.808;9.222;2023-02-04T01:05:13;10.30;9.10
702;DHT22;334;48.808;9.222;2023-02-04T01:06:15;10.20;8.00
702;DHT22;334;48.808;9.222;2023-02-04T01:07:17;10.20;8.40
702;DHT22;334;48.808;9.222;2023-02-04T01:08:19;10.20;8.70
702;DHT22;334;48.808;9.222;2023-02-04T01:09:21;10.20;8.90
702;DHT22;334;48.808;9.222;2023-02-04T01:10:22;10.20;9.00
702;DHT22;334;48.808;9.222;2023-02-04T01:11:25;10.20;9.30
702;DHT22;334;48.808;9.222;2023-02-04T01:12:27;10.10;9.80
702;DHT22;334;48.808;9.222;2023-02-04T01:13:29;10.30;10.40
702;DHT22;334;48.808;9.222;2023-02-04T01:14:31;10.20;10.60
702;DHT22;334;48.808;9.222;2023-02-04T01:15:34;10.10;11.10
702;DHT22;334;48.808;9.222;2023-02-04T01:16:36;10.10;11.50
702;DHT22;334;48.808;9.222;2023-02-04T01:17:39;10.10;12.00
702;DHT22;334;48.808;9.222;2023-02-04T01:18:42;10.10;12.30
702;DHT22;334;48.808;9.222;2023-02-04T01:19:44;10.00;12.70
702;DHT22;334;48.808;9.222;2023-02-04T01:20:46;10.00;13.60
702;DHT22;334;48.808;9.222;2023-02-04T01:21:48;10.00;14.60
702;DHT22;334;48.808;9.222;2023-02-04T01:22:52;10.00;15.60
702;DHT22;334;48.808;9.222;2023-02-04T01:23:54;10.00;15.40
702;DHT22;334;48.808;9.222;2023-02-04T01:24:56;9.90;15.90
702;DHT22;334;48.808;9.222;2023-02-04T01:25:57;9.80;16.20
702;DHT22;334;48.808;9.222;2023-02-04T01:26:59;9.80;16.80
702;DHT22;334;48.808;9.222;2023-02-04T01:28:02;9.80;17.00
702;DHT22;334;48.808;9.222;2023-02-04T01:29:04;9.80;17.20
702;DHT22;334;48.808;9.222;2023-02-04T01:30:07;9.80;17.70
702;DHT22;334;48.808;9.222;2023-02-04T01:31:11;9.80;17.70
702;DHT22;334;48.808;9.222;2023-02-04T01:32:13;9.80;17.50
702;DHT22;334;48.808;9.222;2023-02-04T01:33:15;9.80;17.20
702;DHT22;334;48.808;9.222;2023-02-04T01:34:17;9.80;17.40
702;DHT22;334;48.808;9.222;2023-02-04T01:35:19;9.90;17.60
702;DHT22;334;48.808;9.222;2023-02-04T01:36:21;9.80;17.10
702;DHT22;334;48.808;9.222;2023-02-04T01:37:23;9.90;17.10
702;DHT22;334;48.808;9.222;2023-02-04T01:38:25;9.90;17.10
702;DHT22;334;48.808;9.222;2023-02-04T01:39:27;9.90;17.10
702;DHT22;334;48.808;9.222;2023-02-04T01:40:29;9.90;17.10
702;DHT22;334;48.808;9.222;2023-02-04T01:41:32;9.90;16.90
702;DHT22;334;48.808;9.222;2023-02-04T01:42:34;10.00;16.00
702;DHT22;334;48.808;9.222;2023-02-04T01:43:36;9.90;16.90
702;DHT22;334;48.808;9.222;2023-02-04T01:44:38;9.90;16.30
702;DHT22;334;48.808;9.222;2023-02-04T01:45:40;10.00;15.80
702;DHT22;334;48.808;9.222;2023-02-04T01:46:43;10.00;15.60
702;DHT22;334;48.808;9.222;2023-02-04T01:47:45;10.10;15.30
702;DHT22;334;48.808;9.222;2023-02-04T01:48:46;10.00;15.40
702;DHT22;334;48.808;9.222;2023-02-04T01:49:51;9.90;15.30
702;DHT22;334;48.808;9.222;2023-02-04T01:51:01;9.90;15.50
702;DHT22;334;48.808;9.222;2023-02-04T01:52:04;10.00;14.70
702;DHT22;334;48.808;9.222;2023-02-04T01:53:06;10.00;14.50
702;DHT22;334;48.808;9.222;2023-02-04T01:54:11;9.90;13.90
702;DHT22;334;48.808;9.222;2023-02-04T01:55:19;9.90;14.20
702;DHT22;334;48.808;9.222;2023-02-04T01:56:24;9.90;13.90
702;DHT22;334;48.808;9.222;2023-02-04T01:57:27;9.90;13.70
702;DHT22;334;48.808;9.222;2023-02-04T01:58:31;9.90;13.30
702;DHT22;334;48.808;9.222;2023-02-04T01:59:33;9.90;13.40
702;DHT22;334;48.808;9.222;2023-02-04T02:00:35;9.90;13.40
702;DHT22;334;48.808;9.222;2023-02-04T02:01:41;9.90;13.30
702;DHT22;334;48.808;9.222;2023-02-04T02:02:47;9.90;12.20
702;DHT22;334;48.808;9.222;2023-02-04T02:03:49;9.90;11.70
702;DHT22;334;48.808;9.222;2023-02-04T02:04:50;10.00;11.20
702;DHT22;334;48.808;9.222;2023-02-04T02:05:54;9.90;11.70
702;DHT22;334;48.808;9.222;2023-02-04T02:06:59;10.00;10.40
702;DHT22;334;48.808;9.222;2023-02-04T02:08:04;10.00;10.20
702;DHT22;334;48.808;9.222;2023-02-04T02:09:07;10.00;9.70
702;DHT22;334;48.808;9.222;2023-02-04T02:10:11;10.00;9.50
702;DHT22;334;48.808;9.222;2023-02-04T02:11:14;10.00;9.20
702;DHT22;334;48.808;9.222;2023-02-04T02:12:15;10.00;9.00
702;DHT22;334;48.808;9.222;2023-02-04T02:13:18;10.00;8.90
702;DHT22;334;48.808;9.222;2023-02-04T02:14:21;10.00;8.40
702;DHT22;334;48.808;9.222;2023-02-04T02:15:23;10.00;8.40
702;DHT22;334;48.808;9.222;2023-02-04T02:16:26;10.10;7.80
702;DHT22;334;48.808;9.222;2023-02-04T02:17:28;10.10;8.30
702;DHT22;334;48.808;9.222;2023-02-04T02:18:31;10.20;8.20
702;DHT22;334;48.808;9.222;2023-02-04T02:19:42;10.10;7.70
702;DHT22;334;48.808;9.222;2023-02-04T02:20:45;10.10;7.20
702;DHT22;334;48.808;9.222;2023-02-04T02:21:53;10.20;7.70
702;DHT22;334;48.808;9.222;2023-02-04T02:23:23;10.20;7.90
702;DHT22;334;48.808;9.222;2023-02-04T02:24:32;10.20;7.40
702;DHT22;334;48.808;9.222;2023-02-04T02:25:35;10.20;7.60
702;DHT22;334;48.808;9.222;2023-02-04T02:26:38;10.20;7.30
702;DHT22;334;48.808;9.222;2023-02-04T02:27:42;10.20;6.90
702;DHT22;334;48.808;9.222;2023-02-04T02:28:45;10.20;7.40
702;DHT22;334;48.808;9.222;2023-02-04T02:29:48;10.20;7.40
702;DHT22;334;48.808;9.222;2023-02-04T02:30:51;10.30;7.50
702;DHT22;334;48.808;9.222;2023-02-04T02:31:54;10.20;7.30
702;DHT22;334;48.808;9.222;2023-02-04T02:32:58;10.20;7.40
702;DHT22;334;48.808;9.222;2023-02-04T02:34:00;10.20;7.50
702;DHT22;334;48.808;9.222;2023-02-04T02:35:02;10.20;7.80
702;DHT22;334;48.808;9.222;2023-02-04T02:36:06;10.20;7.90
702;DHT22;334;48.808;9.222;2023-02-04T02:37:08;10.20;7.00
702;DHT22;334;48.808;9.222;2023-02-04T02:38:10;10.20;7.10
702;DHT22;334;48.808;9.222;2023-02-04T02:39:12;10.20;7.10
702;DHT22;334;48.808;9.222;2023-02-04T02:40:14;10.20;7.10
702;DHT22;334;48.808;9.222;2023-02-04T02:41:16;10.20;7.40
702;DHT22;334;48.808;9.222;2023-02-04T02:42:19;10.20;7.30
702;DHT22;334;48.808;9.222;2023-02-04T02:43:23;10.20;7.20
702;DHT22;334;48.808;9.222;2023-02-04T02:44:26;10.20;7.20
702;DHT22;334;48.808;9.222;2023-02-04T02:45:32;10.10;7.30
702;DHT22;334;48.808;9.222;2023-02-04T02:46:36;10.10;7.40
702;DHT22;334;48.808;9.222;2023-02-04T02:47:38;10.10;6.90
702;DHT22;334;48.808;9.222;2023-02-04T02:48:40;10.10;6.90
702;DHT22;334;48.808;9.222;2023-02-04T02:49:42;10.10;7.30
702;DHT22;334;48.808;9.222;2023-02-04T02:50:45;10.10;7.10
702;DHT22;334;48.808;9.222;2023-02-04T02:51:48;10.10;6.90
702;DHT22;334;48.808;9.222;2023-02-04T02:52:50;10.00;6.20
702;DHT22;334;48.808;9.222;2023-02-04T02:53:52;10.00;5.70
702;DHT22;334;48.808;9.222;2023-02-04T02:54:54;10.00;6.40
702;DHT22;334;48.808;9.222;2023-02-04T02:55:56;10.00;6.20
702;DHT22;334;48.808;9.222;2023-02-04T02:56:58;10.00;5.90
702;DHT22;334;48.808;9.222;2023-02-04T02:58:04;10.00;6.20
702;DHT22;334;48.808;9.222;2023-02-04T02:59:14;10.00;6.40
702;DHT22;334;48.808;9.222;2023-02-04T03:00:25;10.00;6.20
702;DHT22;334;48.808;9.222;2023-02-04T03:01:27;10.00;6.20
702;DHT22;334;48.808;9.222;2023-02-04T03:02:30;10.00;5.70
702;DHT22;334;48.808;9.222;2023-02-04T03:03:34;10.00;5.70
702;DHT22;334;48.808;9.222;2023-02-04T03:04:40;10.00;5.00
702;DHT22;334;48.808;9.222;2023-02-04T03:05:47;10.10;5.10
702;DHT22;334;48.808;9.222;2023-02-04T03:06:50;10.10;5.10
702;DHT22;334;48.808;9.222;2023-02-04T03:07:52;10.10;5.10
702;DHT22;334;48.808;9.222;2023-02-04T03:08:57;10.10;5.10
702;DHT22;334;48.808;9.222;2023-02-04T03:09:59;10.20;5.10
702;DHT22;334;48.808;9.222;2023-02-04T03:11:01;10.20;5.10
702;DHT22;334;48.808;9.222;2023-02-04T03:12:04;10.20;4.80
702;DHT22;334;48.808;9.222;2023-02-04T03:13:07;10.20;4.40
702;DHT22;334;48.808;9.222;2023-02-04T03:14:09;10.20;3.80
702;DHT22;334;48.808;9.222;2023-02-04T03:15:11;10.20;3.70
702;DHT22;334;48.808;9.222;2023-02-04T03:16:14;10.20;3.50
702;DHT22;334;48.808;9.222;2023-02-04T03:17:16;10.20;2.70
702;DHT22;334;48.808;9.222;2023-02-04T03:18:19;10.20;3.40
702;DHT22;334;48.808;9.222;2023-02-04T03:19:24;10.10;3.30
702;DHT22;334;48.808;9.222;2023-02-04T03:20:30;10.10;3.50
702;DHT22;334;48.808;9.222;2023-02-04T03:21:33;10.10;3.50
702;DHT22;334;48.808;9.222;2023-02-04T03:22:36;10.10;3.40
702;DHT22;334;48.808;9.222;2023-02-04T03:23:37;10.10;3.40
702;DHT22;334;48.808;9.222;2023-02-04T03:24:40;10.00;3.30
702;DHT22;334;48.808;9.222;2023-02-04T03:25:42;10.00;3.40
702;DHT22;334;48.808;9.222;2023-02-04T03:26:44;10.00;3.70
702;DHT22;334;48.808;9.222;2023-02-04T03:27:46;10.00;3.80
702;DHT22;334;48.808;9.222;2023-02-04T03:28:48;10.00;4.10
702;DHT22;334;48.808;9.222;2023-02-04T03:29:50;10.00;3.90
702;DHT22;334;48.808;9.222;2023-02-04T03:30:52;10.00;4.10
702;DHT22;334;48.808;9.222;2023-02-04T03:31:57;10.00;4.10
702;DHT22;334;48.808;9.222;2023-02-04T03:33:01;9.90;4.50
702;DHT22;334;48.808;9.222;2023-02-04T03:34:04;9.90;4.30
702;DHT22;334;48.808;9.222;2023-02-04T03:35:07;9.90;4.50
702;DHT22;334;48.808;9.222;2023-02-04T03:36:09;9.90;4.70
702;DHT22;334;48.808;9.222;2023-02-04T03:37:11;9.90;5.00
702;DHT22;334;48.808;9.222;2023-02-04T03:38:13;9.90;5.00
702;DHT22;334;48.808;9.222;2023-02-04T03:39:15;9.90;4.90
702;DHT22;334;48.808;9.222;2023-02-04T03:40:17;9.80;5.10
702;DHT22;334;48.808;9.222;2023-02-04T03:41:19;9.80;5.20
702;DHT22;334;48.808;9.222;2023-02-04T03:42:21;9.80;5.60
702;DHT22;334;48.808;9.222;2023-02-04T03:43:23;9.80;5.60
702;DHT22;334;48.808;9.222;2023-02-04T03:44:25;9.80;5.60
702;DHT22;334;48.808;9.222;2023-02-04T03:45:29;9.80;5.60
702;DHT22;334;48.808;9.222;2023-02-04T03:46:44;9.80;6.00
702;DHT22;334;48.808;9.222;2023-02-04T03:47:46;9.80;6.50
702;DHT22;334;48.808;9.222;2023-02-04T03:48:48;9.70;6.70
702;DHT22;334;48.808;9.222;2023-02-04T03:49:50;9.70;6.80
702;DHT22;334;48.808;9.222;2023-02-04T03:50:53;9.70;7.50
702;DHT22;334;48.808;9.222;2023-02-04T03:51:55;9.70;7.60
702;DHT22;334;48.808;9.222;2023-02-04T03:52:57;9.70;7.80
702;DHT22;334;48.808;9.222;2023-02-04T03:53:59;9.70;7.80
702;DHT22;334;48.808;9.222;2023-02-04T03:55:00;9.70;8.00
702;DHT22;334;48.808;9.222;2023-02-04T03:56:02;9.70;8.00
702;DHT22;334;48.808;9.222;2023-02-04T03:57:06;9.60;8.10
702;DHT22;334;48.808;9.222;2023-02-04T03:58:08;9.60;8.60
702;DHT22;334;48.808;9.222;2023-02-04T03:59:10;9.60;8.70
702;DHT22;334;48.808;9.222;2023-02-04T04:00:12;9.60;9.10
702;DHT22;334;48.808;9.222;2023-02-04T04:01:14;9.60;9.10
702;DHT22;334;48.808;9.222;2023-02-04T04:02:16;9.60;9.10
702;DHT22;334;48.808;9.222;2023-02-04T04:03:19;9.70;8.90
702;DHT22;334;48.808;9.222;2023-02-04T04:04:21;9.70;9.00
702;DHT22;334;48.808;9.222;2023-02-04T04:05:23;9.70;9.00
702;DHT22;334;48.808;9.222;2023-02-04T04:06:26;9.70;9.00
702;DHT22;334;48.808;9.222;2023-02-04T04:07:28;9.70;9.20
702;DHT22;334;48.808;9.222;2023-02-04T04:08:30;9.70;9.10
702;DHT22;334;48.808;9.222;2023-02-04T04:09:32;9.70;9.20
702;DHT22;334;48.808;9.222;2023-02-04T04:10:34;9.70;9.20
702;DHT22;334;48.808;9.222;2023-02-04T04:11:36;9.70;9.40
702;DHT22;334;48.808;9.222;2023-02-04T04:12:38;9.70;9.40
702;DHT22;334;48.808;9.222;2023-02-04T04:13:40;9.70;9.40
702;DHT22;334;48.808;9.222;2023-02-04T04:14:42;9.70;9.40
702;DHT22;334;48.808;9.222;2023-02-04T04:15:44;9.70;9.10
702;DHT22;334;48.808;9.222;2023-02-04T04:16:46;9.70;9.40
702;DHT22;334;48.808;9.222;2023-02-04T04:17:48;9.80;8.90
702;DHT22;334;48.808;9.222;2023-02-04T04:18:50;9.70;8.90
702;DHT22;334;48.808;9.222;2023-02-04T04:19:52;9.60;8.70
702;DHT22;334;48.808;9.222;2023-02-04T04:20:53;9.80;8.90
702;DHT22;334;48.808;9.222;2023-02-04T04:21:55;9.80;8.80
702;DHT22;334;48.808;9.222;2023-02-04T04:23:08;9.80;8.80
702;DHT22;334;48.808;9.222;2023-02-04T04:24:10;9.80;8.40
702;DHT22;334;48.808;9.222;2023-02-04T04:25:12;9.80;8.40
702;DHT22;334;48.808;9.222;2023-02-04T04:26:14;9.80;8.70
702;DHT22;334;48.808;9.222;2023-02-04T04:27:16;9.80;8.30
702;DHT22;334;48.808;9.222;2023-02-04T04:28:18;9.80;8.20
702;DHT22;334;48.808;9.222;2023-02-04T04:29:20;9.70;8.70
702;DHT22;334;48.808;9.222;2023-02-04T04:30:22;9.70;8.70
702;DHT22;334;48.808;9.222;2023-02-04T04:31:24;9.70;8.70
702;DHT22;334;48.808;9.222;2023-02-04T04:32:26;9.70;8.70
702;DHT22;334;48.808;9.222;2023-02-04T04:33:28;9.70;8.80
702;DHT22;334;48.808;9.222;2023-02-04T04:34:30;9.70;9.10
702;DHT22;334;48.808;9.222;2023-02-04T04:35:32;9.70;9.40
702;DHT22;334;48.808;9.222;2023-02-04T04:36:36;9.70;9.10
702;DHT22;334;48.808;9.222;2023-02-04T04:37:38;9.70;9.40
702;DHT22;334;48.808;9.222;2023-02-04T04:38:40;9.70;9.40
702;DHT22;334;48.808;9.222;2023-02-04T04:39:42;9.70;9.40
702;DHT22;334;48.808;9.222;2023-02-04T04:40:44;9.60;9.40
702;DHT22;334;48.808;9.222;2023-02-04T04:41:46;9.60;9.30
702;DHT22;334;48.808;9.222;2023-02-04T04:42:48;9.60;9.30
702;DHT22;334;48.808;9.222;2023-02-04T04:43:50;9.60;9.30
702;DHT22;334;48.808;9.222;2023-02-04T04:44:52;9.60;9.40
702;DHT22;334;48.808;9.222;2023-02-04T04:45:54;9.50;9.80
702;DHT22;334;48.808;9.222;2023-02-04T04:46:57;9.50;10.10
702;DHT22;334;48.808;9.222;2023-02-04T04:48:01;9.50;10.10
702;DHT22;334;48.808;9.222;2023-02-04T04:49:02;9.50;10.20
702;DHT22;334;48.808;9.222;2023-02-04T04:50:05;9.50;10.20
702;DHT22;334;48.808;9.222;2023-02-04T04:51:07;9.50;10.10
702;DHT22;334;48.808;9.222;2023-02-04T04:52:09;9.50;10.20
702;DHT22;334;48.808;9.222;2023-02-04T04:53:12;9.50;10.40
702;DHT22;334;48.808;9.222;2023-02-04T04:54:13;9.50;9.90
702;DHT22;334;48.808;9.222;2023-02-04T04:55:15;9.50;10.30
702;DHT22;334;48.808;9.222;2023-02-04T04:56:17;9.50;10.50
702;DHT22;334;48.808;9.222;2023-02-04T04:57:20;9.50;9.90
702;DHT22;334;48.808;9.222;2023-02-04T04:58:22;9.50;10.50
702;DHT22;334;48.808;9.222;2023-02-04T04:59:24;9.50;10.10
702;DHT22;334;48.808;9.222;2023-02-04T05:00:26;9.60;9.70
702;DHT22;334;48.808;9.222;2023-02-04T05:01:29;9.60;9.30
702;DHT22;334;48.808;9.222;2023-02-04T05:02:31;9.50;9.40
702;DHT22;334;48.808;9.222;2023-02-04T05:03:33;9.50;9.30
702;DHT22;334;48.808;9.222;2023-02-04T05:04:35;9.50;9.30
702;DHT22;334;48.808;9.222;2023-02-04T05:05:37;9.50;9.30
702;DHT22;334;48.808;9.222;2023-02-04T05:06:42;9.50;9.30
702;DHT22;334;48.808;9.222;2023-02-04T05:07:45;9.50;9.30
702;DHT22;334;48.808;9.222;2023-02-04T05:08:47;9.50;9.30
702;DHT22;334;48.808;9.222;2023-02-04T05:09:49;9.50;9.30
702;DHT22;334;48.808;9.222;2023-02-04T05:10:54;9.60;9.30
702;DHT22;334;48.808;9.222;2023-02-04T05:11:56;9.50;9.30
702;DHT22;334;48.808;9.222;2023-02-04T05:13:00;9.50;9.70
702;DHT22;334;48.808;9.222;2023-02-04T05:14:04;9.50;9.60
702;DHT22;334;48.808;9.222;2023-02-04T05:15:07;9.60;9.30
702;DHT22;334;48.808;9.222;2023-02-04T05:16:10;9.50;9.40
702;DHT22;334;48.808;9.222;2023-02-04T05:17:13;9.50;9.30
702;DHT22;334;48.808;9.222;2023-02-04T05:18:15;9.50;9.40
702;DHT22;334;48.808;9.222;2023-02-04T05:19:17;9.50;9.30
702;DHT22;334;48.808;9.222;2023-02-04T05:20:19;9.60;9.80
702;DHT22;334;48.808;9.222;2023-02-04T05:21:21;9.60;9.60
702;DHT22;334;48.808;9.222;2023-02-04T05:22:23;9.60;9.50
702;DHT22;334;48.808;9.222;2023-02-04T05:23:25;9.60;9.30
702;DHT22;334;48.808;9.222;2023-02-04T05:24:27;9.60;9.60
702;DHT22;334;48.808;9.222;2023-02-04T05:25:32;9.60;9.60
702;DHT22;334;48.808;9.222;2023-02-04T05:26:33;9.60;9.30
702;DHT22;334;48.808;9.222;2023-02-04T05:27:35;9.60;9.30
702;DHT22;334;48.808;9.222;2023-02-04T05:28:38;9.60;9.40
702;DHT22;334;48.808;9.222;2023-02-04T05:29:40;9.60;9.30
702;DHT22;334;48.808;9.222;2023-02-04T05:30:41;9.60;9.30
702;DHT22;334;48.808;9.222;2023-02-04T05:31:43;9.60;9.30
702;DHT22;334;48.808;9.222;2023-02-04T05:32:45;9.60;9.40
702;DHT22;334;48.808;9.222;2023-02-04T05:33:47;9.50;9.30
702;DHT22;334;48.808;9.222;2023-02-04T05:34:49;9.50;9.60
702;DHT22;334;48.808;9.222;2023-02-04T05:35:51;9.50;9.70
702;DHT22;334;48.808;9.222;2023-02-04T05:36:53;9.50;9.50
702;DHT22;334;48.808;9.222;2023-02-04T05:37:57;9.70;9.70
702;DHT22;334;48.808;9.222;2023-02-04T05:38:59;9.50;9.50
702;DHT22;334;48.808;9.222;2023-02-04T05:40:01;9.50;9.30
702;DHT22;334;48.808;9.222;2023-02-04T05:41:04;9.50;9.50
702;DHT22;334;48.808;9.222;2023-02-04T05:42:06;9.50;9.90
702;DHT22;334;48.808;9.222;2023-02-04T05:43:11;9.50;10.00
702;DHT22;334;48.808;9.222;2023-02-04T05:44:13;9.50;10.20
702;DHT22;334;48.808;9.222;2023-02-04T05:45:15;9.50;9.80
702;DHT22;334;48.808;9.222;2023-02-04T05:46:17;9.60;10.10
702;DHT22;334;48.808;9.222;2023-02-04T05:47:19;9.50;9.90
702;DHT22;334;48.808;9.222;2023-02-04T05:48:22;9.50;9.70
702;DHT22;334;48.808;9.222;2023-02-04T05:49:24;9.50;9.70
702;DHT22;334;48.808;9.222;2023-02-04T05:50:27;9.50;9.70
702;DHT22;334;48.808;9.222;2023-02-04T05:51:29;9.50;9.70
702;DHT22;334;48.808;9.222;2023-02-04T05:52:31;9.50;10.20
702;DHT22;334;48.808;9.222;2023-02-04T05:53:33;9.40;9.90
702;DHT22;334;48.808;9.222;2023-02-04T05:54:35;9.40;10.10
702;DHT22;334;48.808;9.222;2023-02-04T05:55:37;9.40;10.20
702;DHT22;334;48.808;9.222;2023-02-04T05:56:39;9.40;10.30
702;DHT22;334;48.808;9.222;2023-02-04T05:57:40;9.40;10.50
702;DHT22;334;48.808;9.222;2023-02-04T05:58:47;9.30;10.50
702;DHT22;334;48.808;9.222;2023-02-04T05:59:49;9.30;10.40
702;DHT22;334;48.808;9.222;2023-02-04T06:00:50;9.30;10.80
702;DHT22;334;48.808;9.222;2023-02-04T06:01:52;9.30;10.90
702;DHT22;334;48.808;9.222;2023-02-04T06:02:55;9.30;10.70
702;DHT22;334;48.808;9.222;2023-02-04T06:03:57;9.30;10.40
702;DHT22;334;48.808;9.222;2023-02-04T06:04:59;9.40;10.50
702;DHT22;334;48.808;9.222;2023-02-04T06:06:01;9.40;10.40
702;DHT22;334;48.808;9.222;2023-02-04T06:07:03;9.30;10.40
702;DHT22;334;48.808;9.222;2023-02-04T06:08:05;9.40;10.70
702;DHT22;334;48.808;9.222;2023-02-04T06:09:07;9.30;10.40
702;DHT22;334;48.808;9.222;2023-02-04T06:10:09;9.30;10.30
702;DHT22;334;48.808;9.222;2023-02-04T06:11:11;9.40;10.40
702;DHT22;334;48.808;9.222;2023-02-04T06:12:15;9.40;10.20
702;DHT22;334;48.808;9.222;2023-02-04T06:13:16;9.30;10.30
702;DHT22;334;48.808;9.222;2023-02-04T06:14:18;9.30;10.40
702;DHT22;334;48.808;9.222;2023-02-04T06:15:21;9.30;10.30
702;DHT22;334;48.808;9.222;2023-02-04T06:16:23;9.30;10.60
702;DHT22;334;48.808;9.222;2023-02-04T06:17:25;9.30;10.70
702;DHT22;334;48.808;9.222;2023-02-04T06:18:27;9.30;10.70
702;DHT22;334;48.808;9.222;2023-02-04T06:19:29;9.20;10.70
702;DHT22;334;48.808;9.222;2023-02-04T06:20:31;9.20;11.20
702;DHT22;334;48.808;9.222;2023-02-04T06:21:35;9.20;11.20
702;DHT22;334;48.808;9.222;2023-02-04T06:22:39;9.20;11.20
702;DHT22;334;48.808;9.222;2023-02-04T06:23:41;9.20;11.00
702;DHT22;334;48.808;9.222;2023-02-04T06:24:43;9.20;10.80
702;DHT22;334;48.808;9.222;2023-02-04T06:25:48;9.20;11.30
702;DHT22;334;48.808;9.222;2023-02-04T06:26:51;9.10;11.40
702;DHT22;334;48.808;9.222;2023-02-04T06:27:54;9.20;11.30
702;DHT22;334;48.808;9.222;2023-02-04T06:28:56;9.20;11.30
702;DHT22;334;48.808;9.222;2023-02-04T06:29:58;9.20;11.40
702;DHT22;334;48.808;9.222;2023-02-04T06:31:00;9.20;11.30
702;DHT22;334;48.808;9.222;2023-02-04T06:32:02;9.10;11.20
702;DHT22;334;48.808;9.222;2023-02-04T06:33:06;9.10;11.20
702;DHT22;334;48.808;9.222;2023-02-04T06:34:08;9.10;11.30
702;DHT22;334;48.808;9.222;2023-02-04T06:35:10;9.10;11.50
702;DHT22;334;48.808;9.222;2023-02-04T06:36:13;9.10;11.40
702;DHT22;334;48.808;9.222;2023-02-04T06:37:15;9.30;11.40
702;DHT22;334;48.808;9.222;2023-02-04T06:38:17;9.10;11.20
702;DHT22;334;48.808;9.222;2023-02-04T06:39:20;9.10;11.40
702;DHT22;334;48.808;9.222;2023-02-04T06:40:22;9.10;11.50
702;DHT22;334;48.808;9.222;2023-02-04T06:41:23;9.10;11.70
702;DHT22;334;48.808;9.222;2023-02-04T06:42:27;9.10;11.50
702;DHT22;334;48.808;9.222;2023-02-04T06:43:29;9.10;11.60
702;DHT22;334;48.808;9.222;2023-02-04T06:44:31;9.10;11.20
702;DHT22;334;48.808;9.222;2023-02-04T06:45:33;9.10;11.10
702;DHT22;334;48.808;9.222;2023-02-04T06:46:35;9.20;11.60
702;DHT22;334;48.808;9.222;2023-02-04T06:47:37;9.20;11.10
702;DHT22;334;48.808;9.222;2023-02-04T06:48:38;9.20;10.60
702;DHT22;334;48.808;9.222;2023-02-04T06:49:40;9.20;11.00
702;DHT22;334;48.808;9.222;2023-02-04T06:50:42;9.20;11.00
702;DHT22;334;48.808;9.222;2023-02-04T06:51:44;9.20;11.10
702;DHT22;334;48.808;9.222;2023-02-04T06:52:47;9.20;11.20
702;DHT22;334;48.808;9.222;2023-02-04T06:53:49;9.20;11.30
702;DHT22;334;48.808;9.222;2023-02-04T06:54:51;9.20;11.00
702;DHT22;334;48.808;9.222;2023-02-04T06:55:53;9.30;11.10
702;DHT22;334;48.808;9.222;2023-02-04T06:56:55;9.30;10.90
702;DHT22;334;48.808;9.222;2023-02-04T06:57:56;9.30;10.80
702;DHT22;334;48.808;9.222;2023-02-04T06:58:58;9.30;10.90
702;DHT22;334;48.808;9.222;2023-02-04T07:00:02;9.30;10.80
702;DHT22;334;48.808;9.222;2023-02-04T07:01:04;9.30;11.00
702;DHT22;334;48.808;9.222;2023-02-04T07:02:07;9.50;10.50
702;DHT22;334;48.808;9.222;2023-02-04T07:03:09;9.30;10.60
702;DHT22;334;48.808;9.222;2023-02-04T07:04:11;9.40;10.60
702;DHT22;334;48.808;9.222;2023-02-04T07:05:13;9.40;10.20
702;DHT22;334;48.808;9.222;2023-02-04T07:06:15;9.40;10.30
702;DHT22;334;48.808;9.222;2023-02-04T07:07:17;9.40;10.00
702;DHT22;334;48.808;9.222;2023-02-04T07:08:19;9.40;10.10
702;DHT22;334;48.808;9.222;2023-02-04T07:09:24;9.40;9.80
702;DHT22;334;48.808;9.222;2023-02-04T07:10:26;9.40;9.60
702;DHT22;334;48.808;9.222;2023-02-04T07:11:28;9.40;9.70